< Typhoon 196011 1960 Season Typhoon 196013 >
Typhoon 196012 (WENDY)
General InformationTrack Information on Google Maps || NewsDisaster Info.ResourceGoogle EarthGE AnimationAtom FeedGeoJSON
Detalied Best Track (Time Zone = UTC)
Year Month Day Hour Lat. Long. Pressure (hPa) Wind (kt) Class Image Chart
1960 8 10 06 22.7 137.5 1000 0 2 -- Chart
1960 8 10 12 23.7 137.5 996 0 9 -- Chart
1960 8 10 18 24.7 137.4 996 0 9 -- Chart
1960 8 11 00 25.7 137.1 996 0 9 -- Chart
1960 8 11 06 26.8 136.0 996 0 9 -- Chart
1960 8 11 12 27.9 134.9 996 0 9 -- Chart
1960 8 11 18 29.3 134.3 996 0 9 -- Chart
1960 8 12 00 31.0 134.3 996 0 9 -- Chart
1960 8 12 06 32.7 134.0 990 0 9 -- Chart
1960 8 12 12 34.2 134.3 998 0 9 -- Chart
1960 8 12 18 35.7 135.3 1002 0 9 -- Chart
1960 8 13 00 37.5 137.8 1004 0 9 -- Chart
1960 8 13 06 38.5 141.2 1006 0 6 -- Chart
1960 8 13 12 40.1 146.0 1006 0 6 -- Chart
1960 8 13 18 40.4 148.9 1006 0 6 -- Chart
1960 8 14 00 41.0 152.0 1000 0 6 -- Chart
1960 8 14 06 42.0 155.0 1000 0 6 -- Chart
1960 8 14 12 42.0 159.0 1002 0 6 -- Chart
1960 8 14 18 42.0 165.2 1004 0 6 -- Chart
1960 8 15 00 42.9 172.0 1004 0 6 -- Chart
1960 8 15 06 43.2 174.0 1004 0 6 -- Chart
1960 8 15 12 43.9 176.0 1004 0 6 -- Chart
1960 8 15 18 44.2 178.1 1006 0 6 -- Chart
Japan Meteorological Agency Best Track Data | Correction Date : 1989-06-01
< Typhoon 196011 1960 Season Typhoon 196013 >

Help